createdAt,value
2019-04-23T00:03:32.741Z,11.83
2019-04-23T00:08:42.184Z,11.82
2019-04-23T00:13:44.229Z,11.82
2019-04-23T00:24:03.101Z,11.55
2019-04-23T00:34:01.180Z,11.58
2019-04-23T00:39:11.731Z,11.57
2019-04-23T00:44:16.399Z,11.39
2019-04-23T00:54:32.652Z,11.47
2019-04-23T00:59:39.146Z,11.30
2019-04-23T01:04:41.998Z,11.39
2019-04-23T01:09:55.931Z,11.32
2019-04-23T01:14:55.697Z,11.23
2019-04-23T01:20:01.085Z,11.44
2019-04-23T01:24:50.300Z,11.31
2019-04-23T01:30:19.750Z,11.45
2019-04-23T01:35:41.322Z,11.39
2019-04-23T01:45:29.660Z,11.31
2019-04-23T01:50:52.194Z,11.32
2019-04-23T01:55:51.207Z,11.27
2019-04-23T02:01:03.307Z,11.24
2019-04-23T02:06:11.692Z,11.25
2019-04-23T02:11:07.952Z,11.17
2019-04-23T02:16:21.413Z,11.15
2019-04-23T02:21:32.587Z,10.90
2019-04-23T02:26:43.872Z,10.95
2019-04-23T02:31:51.050Z,10.98
2019-04-23T02:52:09.478Z,10.85
2019-04-23T02:57:28.845Z,10.84
2019-04-23T03:07:38.969Z,10.85
2019-04-23T03:12:48.983Z,10.85
2019-04-23T03:17:47.357Z,10.75
2019-04-23T03:23:02.678Z,10.62
2019-04-23T03:34:42.462Z,10.63
2019-04-23T03:38:19.806Z,10.61
2019-04-23T03:43:19.779Z,10.50
2019-04-23T03:48:26.992Z,10.47
2019-04-23T03:53:32.321Z,10.39
2019-04-23T04:08:47.438Z,10.38
2019-04-23T04:14:04.769Z,10.40
2019-04-23T04:24:01.613Z,10.47
2019-04-23T04:29:12.996Z,10.40
2019-04-23T04:34:56.045Z,10.78
2019-04-23T04:49:41.429Z,11.53
2019-04-23T04:54:22.713Z,11.45
2019-04-23T04:59:53.962Z,11.88
2019-04-23T05:04:57.816Z,11.92
2019-04-23T05:10:12.098Z,11.86
2019-04-23T05:15:04.779Z,12.16
2019-04-23T05:25:12.463Z,12.25
2019-04-23T05:30:23.024Z,12.48
2019-04-23T05:35:33.361Z,12.52
2019-04-23T05:40:49.911Z,12.95
2019-04-23T05:45:42.957Z,13.21
2019-04-23T05:50:57.799Z,13.07
2019-04-23T05:55:56.822Z,13.18
2019-04-23T06:01:45.734Z,13.64
2019-04-23T06:06:44.570Z,13.90
2019-04-23T06:11:46.592Z,13.29
2019-04-23T06:16:41.378Z,13.90
2019-04-23T06:27:00.723Z,13.80
2019-04-23T06:31:54.788Z,14.09
2019-04-23T06:37:03.231Z,14.27
2019-04-23T06:42:24.598Z,14.32
2019-04-23T06:47:16.317Z,14.68
2019-04-23T07:02:38.777Z,15.32
2019-04-23T07:08:00.911Z,15.74
2019-04-23T07:12:49.381Z,15.91
2019-04-23T07:17:57.367Z,16.30
2019-04-23T07:23:04.871Z,16.18
2019-04-23T07:28:14.948Z,16.57
2019-04-23T07:33:11.968Z,16.64
2019-04-23T07:38:48.085Z,16.74
2019-04-23T07:43:50.676Z,16.81
2019-04-23T07:48:48.020Z,16.92
2019-04-23T07:54:06.013Z,17.03
2019-04-23T07:59:08.853Z,16.87
2019-04-23T08:04:14.329Z,16.86
2019-04-23T08:09:22.358Z,16.77
2019-04-23T08:14:17.058Z,16.71
2019-04-23T08:19:32.314Z,16.93
2019-04-23T08:24:47.033Z,17.03
2019-04-23T08:29:58.561Z,17.19
2019-04-23T08:34:58.495Z,16.76
2019-04-23T08:40:03.651Z,16.57
2019-04-23T08:50:32.130Z,16.89
2019-04-23T08:55:44.548Z,16.95
2019-04-23T09:00:53.855Z,16.95
2019-04-23T09:11:30.761Z,16.92
2019-04-23T09:16:03.387Z,17.21
2019-04-23T09:26:11.069Z,17.11
2019-04-23T09:37:00.220Z,17.24
2019-04-23T09:42:05.314Z,17.35
2019-04-23T09:47:13.985Z,17.73
2019-04-23T09:52:20.440Z,17.55
2019-04-23T09:57:20.425Z,17.72
2019-04-23T10:02:23.714Z,18.07
2019-04-23T10:07:21.878Z,17.45
2019-04-23T10:12:14.670Z,17.28
2019-04-23T10:17:20.194Z,17.81
2019-04-23T10:22:25.127Z,17.85
2019-04-23T10:27:30.681Z,18.07
2019-04-23T10:32:35.859Z,18.26
2019-04-23T10:37:48.955Z,18.01
2019-04-23T10:42:48.409Z,18.09
2019-04-23T10:49:00.627Z,18.71
2019-04-23T10:54:03.489Z,18.42
2019-04-23T10:58:54.994Z,18.21
2019-04-23T11:09:27.768Z,18.69
2019-04-23T11:14:25.347Z,18.51
2019-04-23T11:19:31.960Z,18.81
2019-04-23T11:39:49.683Z,19.10
2019-04-23T11:44:56.564Z,18.63
2019-04-23T11:50:16.197Z,18.38
2019-04-23T11:55:22.427Z,18.47
2019-04-23T12:00:17.609Z,18.22
2019-04-23T12:10:54.360Z,18.40
2019-04-23T12:20:56.889Z,18.93
2019-04-23T12:31:23.550Z,18.66
2019-04-23T12:36:28.655Z,18.60
2019-04-23T12:41:42.119Z,18.28
2019-04-23T12:46:45.777Z,18.27
2019-04-23T12:51:47.167Z,18.17
2019-04-23T12:57:09.818Z,18.17
2019-04-23T13:02:03.387Z,18.08
2019-04-23T13:07:13.146Z,18.06
2019-04-23T13:12:20.203Z,18.04
2019-04-23T13:17:34.874Z,18.02
2019-04-23T13:22:24.271Z,18.13
2019-04-23T13:27:38.106Z,18.02
2019-04-23T13:32:42.946Z,18.12
2019-04-23T13:37:59.404Z,17.95
2019-04-23T13:42:57.266Z,18.03
2019-04-23T13:48:03.223Z,17.97
2019-04-23T13:53:33.557Z,18.00
2019-04-23T14:08:37.851Z,17.84
2019-04-23T14:18:53.902Z,18.02
2019-04-23T14:23:59.395Z,18.08
2019-04-23T14:34:00.173Z,18.02
2019-04-23T14:39:04.213Z,18.11
2019-04-23T14:49:16.500Z,18.00
2019-04-23T14:54:50.419Z,17.87
2019-04-23T14:59:32.017Z,17.94
2019-04-23T15:04:39.787Z,18.07
2019-04-23T15:09:57.547Z,17.79
2019-04-23T15:14:59.943Z,17.75
2019-04-23T15:20:17.274Z,17.46
2019-04-23T15:25:36.943Z,17.28
2019-04-23T15:30:21.650Z,17.12
2019-04-23T15:36:02.296Z,17.04
2019-04-23T15:40:42.066Z,16.77
2019-04-23T15:45:53.841Z,16.72
2019-04-23T15:51:06.222Z,16.61
2019-04-23T15:56:16.182Z,16.60
2019-04-23T16:01:29.222Z,16.53
2019-04-23T16:05:59.261Z,16.34
2019-04-23T16:11:41.438Z,16.23
2019-04-23T16:26:55.889Z,15.96
2019-04-23T16:32:04.487Z,15.97
2019-04-23T16:42:08.788Z,15.70
2019-04-23T16:47:19.339Z,15.77
2019-04-23T16:52:23.167Z,15.74
2019-04-23T17:02:34.217Z,15.55
2019-04-23T17:07:36.526Z,15.46
2019-04-23T17:12:52.822Z,15.37
2019-04-23T17:17:55.698Z,15.37
2019-04-23T17:23:05.170Z,15.21
2019-04-23T17:28:12.717Z,15.49
2019-04-23T17:33:18.923Z,15.12
2019-04-23T17:38:27.818Z,15.20
2019-04-23T17:43:32.883Z,15.12
2019-04-23T17:48:35.286Z,15.09
2019-04-23T17:53:58.201Z,15.01
2019-04-23T17:58:49.990Z,14.99
2019-04-23T18:09:14.563Z,14.90
2019-04-23T18:14:11.496Z,14.80
2019-04-23T18:19:16.592Z,14.96
2019-04-23T18:25:03.902Z,14.83
2019-04-23T18:35:17.063Z,14.95
2019-04-23T18:40:06.829Z,14.86
2019-04-23T18:45:22.916Z,14.71
2019-04-23T18:50:29.196Z,14.86
2019-04-23T18:55:45.197Z,14.58
2019-04-23T19:00:57.120Z,14.73
2019-04-23T19:10:53.728Z,14.60
2019-04-23T19:15:52.585Z,14.55
2019-04-23T19:26:22.787Z,14.13
2019-04-23T19:31:39.850Z,13.99
2019-04-23T19:36:40.318Z,14.02
2019-04-23T19:41:55.422Z,13.94
2019-04-23T19:46:58.351Z,13.92
2019-04-23T19:51:56.465Z,13.87
2019-04-23T19:57:01.937Z,13.74
2019-04-23T20:12:25.999Z,14.13
2019-04-23T20:22:42.199Z,13.54
2019-04-23T20:27:39.670Z,13.39
2019-04-23T20:42:53.001Z,13.37
2019-04-23T20:53:09.227Z,13.15
2019-04-23T20:58:21.225Z,13.29
2019-04-23T21:03:52.394Z,13.15
2019-04-23T21:18:51.361Z,13.21
2019-04-23T21:23:56.732Z,13.19
2019-04-23T21:28:54.034Z,13.13
2019-04-23T21:34:11.349Z,13.26
2019-04-23T21:44:18.144Z,13.15
2019-04-23T21:49:41.209Z,13.10
2019-04-23T21:54:36.547Z,13.12
2019-04-23T21:59:41.549Z,13.14
2019-04-23T22:04:58.532Z,13.00
2019-04-23T22:10:00.469Z,13.13
2019-04-23T22:14:55.881Z,13.09
2019-04-23T22:25:13.176Z,13.17
2019-04-23T22:30:22.714Z,13.11
2019-04-23T22:35:34.944Z,12.95
2019-04-23T22:40:36.980Z,13.11
2019-04-23T22:45:54.521Z,13.14
2019-04-23T22:50:57.479Z,13.09
2019-04-23T22:56:01.640Z,13.08
2019-04-23T23:01:17.849Z,13.22
2019-04-23T23:06:29.283Z,13.21
2019-04-23T23:11:13.978Z,13.22
2019-04-23T23:16:21.400Z,13.12
2019-04-23T23:21:32.500Z,13.21
2019-04-23T23:26:40.660Z,13.15
2019-04-23T23:31:47.494Z,13.19
2019-04-23T23:36:54.828Z,13.26
2019-04-23T23:41:56.995Z,13.26
2019-04-23T23:47:14.759Z,13.23
2019-04-23T23:52:03.316Z,13.25
2019-04-23T23:57:17.713Z,13.24
